sensor_id;sensor_type;location;lat;lon;timestamp;temperature;humidity
26575;DHT22;67165;50.256;10.978;2023-05-14T00:01:38;10.50;98.00
26575;DHT22;67165;50.256;10.978;2023-05-14T00:04:04;10.50;98.00
26575;DHT22;67165;50.256;10.978;2023-05-14T00:06:30;10.40;98.00
26575;DHT22;67165;50.256;10.978;2023-05-14T00:08:56;10.40;98.00
26575;DHT22;67165;50.256;10.978;2023-05-14T00:11:21;10.30;98.00
26575;DHT22;67165;50.256;10.978;2023-05-14T00:13:48;10.30;98.00
26575;DHT22;67165;50.256;10.978;2023-05-14T00:16:14;10.30;98.00
26575;DHT22;67165;50.256;10.978;2023-05-14T00:18:40;10.30;98.00
26575;DHT22;67165;50.256;10.978;2023-05-14T00:21:06;10.30;98.00
26575;DHT22;67165;50.256;10.978;2023-05-14T00:23:31;10.30;98.00
26575;DHT22;67165;50.256;10.978;2023-05-14T00:25:57;10.30;98.00
26575;DHT22;67165;50.256;10.978;2023-05-14T00:28:23;10.20;98.00
26575;DHT22;67165;50.256;10.978;2023-05-14T00:30:48;10.20;98.00
26575;DHT22;67165;50.256;10.978;2023-05-14T00:33:14;10.20;98.00
26575;DHT22;67165;50.256;10.978;2023-05-14T00:35:39;10.20;98.00
26575;DHT22;67165;50.256;10.978;2023-05-14T00:38:05;10.20;98.00
26575;DHT22;67165;50.256;10.978;2023-05-14T00:40:31;10.20;98.00
26575;DHT22;67165;50.256;10.978;2023-05-14T00:42:56;10.20;98.00
26575;DHT22;67165;50.256;10.978;2023-05-14T00:45:22;10.20;98.00
26575;DHT22;67165;50.256;10.978;2023-05-14T00:47:48;10.20;98.00
26575;DHT22;67165;50.256;10.978;2023-05-14T00:50:15;10.20;98.00
26575;DHT22;67165;50.256;10.978;2023-05-14T00:52:44;10.20;98.00
26575;DHT22;67165;50.256;10.978;2023-05-14T00:55:11;10.20;98.00
26575;DHT22;67165;50.256;10.978;2023-05-14T00:57:40;10.20;98.00
26575;DHT22;67165;50.256;10.978;2023-05-14T01:00:07;10.20;98.00
26575;DHT22;67165;50.256;10.978;2023-05-14T01:02:33;10.30;98.00
26575;DHT22;67165;50.256;10.978;2023-05-14T01:04:59;10.30;98.00
26575;DHT22;67165;50.256;10.978;2023-05-14T01:07:40;10.40;98.00
26575;DHT22;67165;50.256;10.978;2023-05-14T01:10:20;10.40;98.00
26575;DHT22;67165;50.256;10.978;2023-05-14T01:15:24;10.40;98.00
26575;DHT22;67165;50.256;10.978;2023-05-14T01:18:02;10.40;98.00
26575;DHT22;67165;50.256;10.978;2023-05-14T01:20:28;10.50;98.00
26575;DHT22;67165;50.256;10.978;2023-05-14T01:22:57;10.40;98.00
26575;DHT22;67165;50.256;10.978;2023-05-14T01:25:23;10.30;98.00
26575;DHT22;67165;50.256;10.978;2023-05-14T01:28:00;10.30;98.00
26575;DHT22;67165;50.256;10.978;2023-05-14T01:30:36;10.30;98.00
26575;DHT22;67165;50.256;10.978;2023-05-14T01:33:11;10.30;98.00
26575;DHT22;67165;50.256;10.978;2023-05-14T01:35:38;10.30;98.00
26575;DHT22;67165;50.256;10.978;2023-05-14T01:38:07;10.30;98.00
26575;DHT22;67165;50.256;10.978;2023-05-14T01:40:35;10.20;98.00
26575;DHT22;67165;50.256;10.978;2023-05-14T01:43:02;10.20;98.00
26575;DHT22;67165;50.256;10.978;2023-05-14T01:45:29;10.20;98.00
26575;DHT22;67165;50.256;10.978;2023-05-14T01:47:55;10.20;98.00
26575;DHT22;67165;50.256;10.978;2023-05-14T01:50:21;10.20;98.00
26575;DHT22;67165;50.256;10.978;2023-05-14T01:52:47;10.20;98.00
26575;DHT22;67165;50.256;10.978;2023-05-14T01:55:13;10.10;98.00
26575;DHT22;67165;50.256;10.978;2023-05-14T01:57:40;10.10;98.00
26575;DHT22;67165;50.256;10.978;2023-05-14T02:00:06;10.20;98.00
26575;DHT22;67165;50.256;10.978;2023-05-14T02:02:32;10.10;98.00
26575;DHT22;67165;50.256;10.978;2023-05-14T02:04:57;10.10;98.00
26575;DHT22;67165;50.256;10.978;2023-05-14T02:07:23;10.10;98.00
26575;DHT22;67165;50.256;10.978;2023-05-14T02:09:48;10.10;98.00
26575;DHT22;67165;50.256;10.978;2023-05-14T02:12:14;10.10;98.00
26575;DHT22;67165;50.256;10.978;2023-05-14T02:14:41;10.10;98.00
26575;DHT22;67165;50.256;10.978;2023-05-14T02:17:07;10.00;98.00
26575;DHT22;67165;50.256;10.978;2023-05-14T02:19:32;10.00;98.00
26575;DHT22;67165;50.256;10.978;2023-05-14T02:21:58;10.00;98.00
26575;DHT22;67165;50.256;10.978;2023-05-14T02:24:25;10.00;98.00
26575;DHT22;67165;50.256;10.978;2023-05-14T02:26:51;10.00;98.00
26575;DHT22;67165;50.256;10.978;2023-05-14T02:29:17;10.10;98.00
26575;DHT22;67165;50.256;10.978;2023-05-14T02:31:43;10.10;98.00
26575;DHT22;67165;50.256;10.978;2023-05-14T02:34:09;10.10;98.00
26575;DHT22;67165;50.256;10.978;2023-05-14T02:36:34;10.10;98.00
26575;DHT22;67165;50.256;10.978;2023-05-14T02:39:00;10.10;98.00
26575;DHT22;67165;50.256;10.978;2023-05-14T02:41:26;10.10;98.00
26575;DHT22;67165;50.256;10.978;2023-05-14T02:43:52;10.20;98.00
26575;DHT22;67165;50.256;10.978;2023-05-14T02:46:18;10.10;98.00
26575;DHT22;67165;50.256;10.978;2023-05-14T02:48:44;10.10;98.00
26575;DHT22;67165;50.256;10.978;2023-05-14T02:51:09;10.10;98.00
26575;DHT22;67165;50.256;10.978;2023-05-14T02:53:35;10.10;98.00
26575;DHT22;67165;50.256;10.978;2023-05-14T02:56:01;10.10;98.00
26575;DHT22;67165;50.256;10.978;2023-05-14T02:58:26;10.10;98.00
26575;DHT22;67165;50.256;10.978;2023-05-14T03:00:52;10.10;98.00
26575;DHT22;67165;50.256;10.978;2023-05-14T03:03:18;10.00;98.00
26575;DHT22;67165;50.256;10.978;2023-05-14T03:05:44;10.00;98.00
26575;DHT22;67165;50.256;10.978;2023-05-14T03:08:09;9.90;98.00
26575;DHT22;67165;50.256;10.978;2023-05-14T03:10:35;9.90;98.00
26575;DHT22;67165;50.256;10.978;2023-05-14T03:13:01;10.00;98.00
26575;DHT22;67165;50.256;10.978;2023-05-14T03:15:27;9.90;98.00
26575;DHT22;67165;50.256;10.978;2023-05-14T03:17:52;9.90;98.00
26575;DHT22;67165;50.256;10.978;2023-05-14T03:20:18;9.90;98.00
26575;DHT22;67165;50.256;10.978;2023-05-14T03:22:44;9.90;98.00
26575;DHT22;67165;50.256;10.978;2023-05-14T03:25:10;9.80;98.00
26575;DHT22;67165;50.256;10.978;2023-05-14T03:27:36;9.80;98.00
26575;DHT22;67165;50.256;10.978;2023-05-14T03:30:02;9.80;98.00
26575;DHT22;67165;50.256;10.978;2023-05-14T03:32:27;9.90;98.00
26575;DHT22;67165;50.256;10.978;2023-05-14T03:34:53;9.90;98.00
26575;DHT22;67165;50.256;10.978;2023-05-14T03:37:19;9.90;98.00
26575;DHT22;67165;50.256;10.978;2023-05-14T03:39:45;9.90;98.00
26575;DHT22;67165;50.256;10.978;2023-05-14T03:42:10;9.90;98.00
26575;DHT22;67165;50.256;10.978;2023-05-14T03:44:36;9.90;98.00
26575;DHT22;67165;50.256;10.978;2023-05-14T03:47:02;9.90;98.00
26575;DHT22;67165;50.256;10.978;2023-05-14T03:49:27;9.80;98.00
26575;DHT22;67165;50.256;10.978;2023-05-14T03:51:53;9.90;98.00
26575;DHT22;67165;50.256;10.978;2023-05-14T03:54:19;10.00;98.00
26575;DHT22;67165;50.256;10.978;2023-05-14T03:56:44;10.00;98.00
26575;DHT22;67165;50.256;10.978;2023-05-14T03:59:10;10.10;98.00
26575;DHT22;67165;50.256;10.978;2023-05-14T04:01:36;10.10;98.00
26575;DHT22;67165;50.256;10.978;2023-05-14T04:04:01;10.10;98.00
26575;DHT22;67165;50.256;10.978;2023-05-14T04:06:27;10.20;98.00
26575;DHT22;67165;50.256;10.978;2023-05-14T04:08:53;10.30;98.00
26575;DHT22;67165;50.256;10.978;2023-05-14T04:11:18;10.30;98.00
26575;DHT22;67165;50.256;10.978;2023-05-14T04:13:44;10.40;98.00
26575;DHT22;67165;50.256;10.978;2023-05-14T04:16:10;10.50;98.00
26575;DHT22;67165;50.256;10.978;2023-05-14T04:18:35;10.60;98.00
26575;DHT22;67165;50.256;10.978;2023-05-14T04:21:01;10.70;98.00
26575;DHT22;67165;50.256;10.978;2023-05-14T04:23:27;10.70;98.00
26575;DHT22;67165;50.256;10.978;2023-05-14T04:25:53;10.70;98.00
26575;DHT22;67165;50.256;10.978;2023-05-14T04:28:19;10.80;98.00
26575;DHT22;67165;50.256;10.978;2023-05-14T04:30:45;10.90;98.00
26575;DHT22;67165;50.256;10.978;2023-05-14T04:33:10;10.90;98.00
26575;DHT22;67165;50.256;10.978;2023-05-14T04:35:37;10.90;98.00
26575;DHT22;67165;50.256;10.978;2023-05-14T04:38:03;11.00;98.00
26575;DHT22;67165;50.256;10.978;2023-05-14T04:40:28;11.00;98.00
26575;DHT22;67165;50.256;10.978;2023-05-14T04:42:55;11.10;98.00
26575;DHT22;67165;50.256;10.978;2023-05-14T04:45:21;11.10;98.00
26575;DHT22;67165;50.256;10.978;2023-05-14T04:47:46;11.00;98.00
26575;DHT22;67165;50.256;10.978;2023-05-14T04:50:12;11.10;98.00
26575;DHT22;67165;50.256;10.978;2023-05-14T04:52:38;11.10;98.00
26575;DHT22;67165;50.256;10.978;2023-05-14T04:55:04;11.00;98.00
26575;DHT22;67165;50.256;10.978;2023-05-14T04:57:30;11.10;98.00
26575;DHT22;67165;50.256;10.978;2023-05-14T04:59:56;11.10;98.00
26575;DHT22;67165;50.256;10.978;2023-05-14T05:02:22;11.10;98.00
26575;DHT22;67165;50.256;10.978;2023-05-14T05:04:47;11.10;98.00
26575;DHT22;67165;50.256;10.978;2023-05-14T05:07:13;11.20;98.00
26575;DHT22;67165;50.256;10.978;2023-05-14T05:09:39;11.30;98.00
26575;DHT22;67165;50.256;10.978;2023-05-14T05:12:05;11.30;98.00
26575;DHT22;67165;50.256;10.978;2023-05-14T05:14:31;11.30;98.00
26575;DHT22;67165;50.256;10.978;2023-05-14T05:16:56;11.30;98.00
26575;DHT22;67165;50.256;10.978;2023-05-14T05:19:22;11.30;98.00
26575;DHT22;67165;50.256;10.978;2023-05-14T05:21:48;11.40;98.00
26575;DHT22;67165;50.256;10.978;2023-05-14T05:24:13;11.40;98.00
26575;DHT22;67165;50.256;10.978;2023-05-14T05:26:39;11.50;98.00
26575;DHT22;67165;50.256;10.978;2023-05-14T05:29:06;11.50;98.00
26575;DHT22;67165;50.256;10.978;2023-05-14T05:31:31;11.60;98.00
26575;DHT22;67165;50.256;10.978;2023-05-14T05:33:58;11.70;98.00
26575;DHT22;67165;50.256;10.978;2023-05-14T05:36:24;11.70;98.00
26575;DHT22;67165;50.256;10.978;2023-05-14T05:38:50;11.70;98.00
26575;DHT22;67165;50.256;10.978;2023-05-14T05:41:16;11.70;98.00
26575;DHT22;67165;50.256;10.978;2023-05-14T05:43:41;11.70;98.00
26575;DHT22;67165;50.256;10.978;2023-05-14T05:46:07;11.80;98.00
26575;DHT22;67165;50.256;10.978;2023-05-14T05:48:33;11.90;98.00
26575;DHT22;67165;50.256;10.978;2023-05-14T05:50:58;12.00;98.00
26575;DHT22;67165;50.256;10.978;2023-05-14T05:53:24;12.10;98.00
26575;DHT22;67165;50.256;10.978;2023-05-14T05:55:50;12.30;98.00
26575;DHT22;67165;50.256;10.978;2023-05-14T05:58:17;12.40;98.00
26575;DHT22;67165;50.256;10.978;2023-05-14T06:00:42;12.60;98.00
26575;DHT22;67165;50.256;10.978;2023-05-14T06:03:09;13.00;98.00
26575;DHT22;67165;50.256;10.978;2023-05-14T06:05:35;13.40;98.00
26575;DHT22;67165;50.256;10.978;2023-05-14T06:08:01;13.60;98.00
26575;DHT22;67165;50.256;10.978;2023-05-14T06:10:27;13.70;98.00
26575;DHT22;67165;50.256;10.978;2023-05-14T06:12:53;13.90;98.00
26575;DHT22;67165;50.256;10.978;2023-05-14T06:15:19;14.10;98.00
26575;DHT22;67165;50.256;10.978;2023-05-14T06:17:44;14.40;98.00
26575;DHT22;67165;50.256;10.978;2023-05-14T06:20:10;15.00;98.00
26575;DHT22;67165;50.256;10.978;2023-05-14T06:22:36;15.20;98.00
26575;DHT22;67165;50.256;10.978;2023-05-14T06:25:03;15.30;98.00
26575;DHT22;67165;50.256;10.978;2023-05-14T06:27:29;15.40;98.00
26575;DHT22;67165;50.256;10.978;2023-05-14T06:29:54;15.80;98.00
26575;DHT22;67165;50.256;10.978;2023-05-14T06:32:20;16.10;98.00
26575;DHT22;67165;50.256;10.978;2023-05-14T06:34:46;15.70;98.00
26575;DHT22;67165;50.256;10.978;2023-05-14T06:37:11;15.60;98.00
26575;DHT22;67165;50.256;10.978;2023-05-14T06:39:39;15.30;98.00
26575;DHT22;67165;50.256;10.978;2023-05-14T06:42:08;15.30;98.00
26575;DHT22;67165;50.256;10.978;2023-05-14T06:44:34;15.00;98.00
26575;DHT22;67165;50.256;10.978;2023-05-14T06:47:00;14.80;98.00
26575;DHT22;67165;50.256;10.978;2023-05-14T06:49:26;14.90;98.00
26575;DHT22;67165;50.256;10.978;2023-05-14T06:51:51;14.70;98.00
26575;DHT22;67165;50.256;10.978;2023-05-14T06:54:18;14.80;98.00
26575;DHT22;67165;50.256;10.978;2023-05-14T06:56:47;14.80;98.00
26575;DHT22;67165;50.256;10.978;2023-05-14T06:59:12;14.60;98.00
26575;DHT22;67165;50.256;10.978;2023-05-14T07:01:41;14.60;98.00
26575;DHT22;67165;50.256;10.978;2023-05-14T07:04:07;14.40;98.00
26575;DHT22;67165;50.256;10.978;2023-05-14T07:06:32;14.40;98.00
26575;DHT22;67165;50.256;10.978;2023-05-14T07:08:59;14.40;98.00
26575;DHT22;67165;50.256;10.978;2023-05-14T07:11:25;14.40;98.00
26575;DHT22;67165;50.256;10.978;2023-05-14T07:13:51;14.20;98.00
26575;DHT22;67165;50.256;10.978;2023-05-14T07:16:16;14.30;98.00
26575;DHT22;67165;50.256;10.978;2023-05-14T07:18:43;14.20;98.00
26575;DHT22;67165;50.256;10.978;2023-05-14T07:21:08;14.00;98.00
26575;DHT22;67165;50.256;10.978;2023-05-14T07:23:34;14.10;98.00
26575;DHT22;67165;50.256;10.978;2023-05-14T07:26:04;14.10;98.00
26575;DHT22;67165;50.256;10.978;2023-05-14T07:28:30;14.20;98.00
26575;DHT22;67165;50.256;10.978;2023-05-14T07:30:55;14.30;98.00
26575;DHT22;67165;50.256;10.978;2023-05-14T07:33:21;14.40;98.00
26575;DHT22;67165;50.256;10.978;2023-05-14T07:35:47;14.50;98.00
26575;DHT22;67165;50.256;10.978;2023-05-14T07:38:13;14.60;98.00
26575;DHT22;67165;50.256;10.978;2023-05-14T07:40:39;14.80;98.00
26575;DHT22;67165;50.256;10.978;2023-05-14T07:43:08;14.60;98.00
26575;DHT22;67165;50.256;10.978;2023-05-14T07:45:35;14.50;98.00
26575;DHT22;67165;50.256;10.978;2023-05-14T07:48:01;14.50;98.00
26575;DHT22;67165;50.256;10.978;2023-05-14T07:50:27;14.50;98.00
26575;DHT22;67165;50.256;10.978;2023-05-14T07:52:52;14.50;98.00
26575;DHT22;67165;50.256;10.978;2023-05-14T07:55:18;14.30;98.00
26575;DHT22;67165;50.256;10.978;2023-05-14T07:57:44;14.10;98.00
26575;DHT22;67165;50.256;10.978;2023-05-14T08:00:10;14.10;98.00
26575;DHT22;67165;50.256;10.978;2023-05-14T08:02:36;14.20;98.00
26575;DHT22;67165;50.256;10.978;2023-05-14T08:05:02;14.10;98.00
26575;DHT22;67165;50.256;10.978;2023-05-14T08:07:29;13.90;98.00
26575;DHT22;67165;50.256;10.978;2023-05-14T08:09:54;14.00;98.00
26575;DHT22;67165;50.256;10.978;2023-05-14T08:12:20;13.90;98.00
26575;DHT22;67165;50.256;10.978;2023-05-14T08:14:46;14.00;98.00
26575;DHT22;67165;50.256;10.978;2023-05-14T08:17:11;14.00;98.00
26575;DHT22;67165;50.256;10.978;2023-05-14T08:19:37;14.10;98.00
26575;DHT22;67165;50.256;10.978;2023-05-14T08:22:03;14.20;98.00
26575;DHT22;67165;50.256;10.978;2023-05-14T08:24:30;14.30;98.00
26575;DHT22;67165;50.256;10.978;2023-05-14T08:26:55;14.20;98.00
26575;DHT22;67165;50.256;10.978;2023-05-14T08:29:21;14.30;98.00
26575;DHT22;67165;50.256;10.978;2023-05-14T08:31:50;14.40;98.00
26575;DHT22;67165;50.256;10.978;2023-05-14T08:34:16;14.40;98.00
26575;DHT22;67165;50.256;10.978;2023-05-14T08:36:41;14.40;98.00
26575;DHT22;67165;50.256;10.978;2023-05-14T08:39:07;14.40;98.00
26575;DHT22;67165;50.256;10.978;2023-05-14T08:41:33;14.30;98.00
26575;DHT22;67165;50.256;10.978;2023-05-14T08:46:43;14.60;98.00
26575;DHT22;67165;50.256;10.978;2023-05-14T08:49:16;14.80;98.00
26575;DHT22;67165;50.256;10.978;2023-05-14T08:51:45;14.90;98.00
26575;DHT22;67165;50.256;10.978;2023-05-14T08:54:15;15.00;98.00
26575;DHT22;67165;50.256;10.978;2023-05-14T08:56:43;15.30;98.00
26575;DHT22;67165;50.256;10.978;2023-05-14T08:59:10;15.50;98.00
26575;DHT22;67165;50.256;10.978;2023-05-14T09:01:37;15.30;98.00
26575;DHT22;67165;50.256;10.978;2023-05-14T09:04:05;15.30;98.00
26575;DHT22;67165;50.256;10.978;2023-05-14T09:06:35;15.30;98.00
26575;DHT22;67165;50.256;10.978;2023-05-14T09:09:04;15.70;98.00
26575;DHT22;67165;50.256;10.978;2023-05-14T09:11:30;15.80;98.00
26575;DHT22;67165;50.256;10.978;2023-05-14T09:13:56;16.10;98.00
26575;DHT22;67165;50.256;10.978;2023-05-14T09:16:22;16.20;98.00
26575;DHT22;67165;50.256;10.978;2023-05-14T09:18:50;16.30;98.00
26575;DHT22;67165;50.256;10.978;2023-05-14T09:21:17;16.30;98.00
26575;DHT22;67165;50.256;10.978;2023-05-14T09:23:43;16.50;98.00
26575;DHT22;67165;50.256;10.978;2023-05-14T09:26:09;16.30;98.00
26575;DHT22;67165;50.256;10.978;2023-05-14T09:28:39;16.30;98.00
26575;DHT22;67165;50.256;10.978;2023-05-14T09:31:07;16.30;98.00
26575;DHT22;67165;50.256;10.978;2023-05-14T09:33:33;16.40;98.00
26575;DHT22;67165;50.256;10.978;2023-05-14T09:36:00;16.40;98.00
26575;DHT22;67165;50.256;10.978;2023-05-14T09:38:32;16.60;98.00
26575;DHT22;67165;50.256;10.978;2023-05-14T09:40:59;16.80;98.00
26575;DHT22;67165;50.256;10.978;2023-05-14T09:43:25;16.90;98.00
26575;DHT22;67165;50.256;10.978;2023-05-14T09:45:51;16.90;98.00
26575;DHT22;67165;50.256;10.978;2023-05-14T09:48:18;17.00;98.00
26575;DHT22;67165;50.256;10.978;2023-05-14T09:50:45;17.20;98.00
26575;DHT22;67165;50.256;10.978;2023-05-14T09:53:12;17.40;98.00
26575;DHT22;67165;50.256;10.978;2023-05-14T09:55:38;17.50;98.00
26575;DHT22;67165;50.256;10.978;2023-05-14T09:58:04;17.50;98.00
26575;DHT22;67165;50.256;10.978;2023-05-14T10:00:31;17.20;98.00
26575;DHT22;67165;50.256;10.978;2023-05-14T10:02:58;17.20;98.00
26575;DHT22;67165;50.256;10.978;2023-05-14T10:05:28;17.30;98.00
26575;DHT22;67165;50.256;10.978;2023-05-14T10:07:56;17.40;98.00
26575;DHT22;67165;50.256;10.978;2023-05-14T10:10:25;17.60;98.00
26575;DHT22;67165;50.256;10.978;2023-05-14T10:12:56;17.70;98.00
26575;DHT22;67165;50.256;10.978;2023-05-14T10:16:20;17.60;98.00
26575;DHT22;67165;50.256;10.978;2023-05-14T10:18:46;18.00;98.00
26575;DHT22;67165;50.256;10.978;2023-05-14T10:21:19;18.40;98.00
26575;DHT22;67165;50.256;10.978;2023-05-14T10:23:46;18.40;98.00
26575;DHT22;67165;50.256;10.978;2023-05-14T10:26:15;18.40;98.00
26575;DHT22;67165;50.256;10.978;2023-05-14T10:28:41;18.20;98.00
26575;DHT22;67165;50.256;10.978;2023-05-14T10:31:08;18.30;98.00
26575;DHT22;67165;50.256;10.978;2023-05-14T10:33:54;18.30;98.00
26575;DHT22;67165;50.256;10.978;2023-05-14T10:36:21;18.50;98.00
26575;DHT22;67165;50.256;10.978;2023-05-14T10:38:54;18.20;98.00
26575;DHT22;67165;50.256;10.978;2023-05-14T10:41:20;18.40;98.00
26575;DHT22;67165;50.256;10.978;2023-05-14T10:43:46;18.40;98.00
26575;DHT22;67165;50.256;10.978;2023-05-14T10:46:13;18.00;98.00
26575;DHT22;67165;50.256;10.978;2023-05-14T10:48:41;17.70;98.00
26575;DHT22;67165;50.256;10.978;2023-05-14T10:51:10;17.30;98.00
26575;DHT22;67165;50.256;10.978;2023-05-14T10:53:38;17.70;98.00
26575;DHT22;67165;50.256;10.978;2023-05-14T10:56:08;17.90;98.00
26575;DHT22;67165;50.256;10.978;2023-05-14T10:58:39;17.60;98.00
26575;DHT22;67165;50.256;10.978;2023-05-14T11:01:10;17.90;98.00
26575;DHT22;67165;50.256;10.978;2023-05-14T11:03:44;18.10;98.00
26575;DHT22;67165;50.256;10.978;2023-05-14T11:06:13;18.50;98.00
26575;DHT22;67165;50.256;10.978;2023-05-14T11:08:39;18.80;98.00
26575;DHT22;67165;50.256;10.978;2023-05-14T11:11:06;18.50;98.00
26575;DHT22;67165;50.256;10.978;2023-05-14T11:13:31;18.30;98.00
26575;DHT22;67165;50.256;10.978;2023-05-14T11:16:00;18.20;98.00
26575;DHT22;67165;50.256;10.978;2023-05-14T11:18:30;18.10;98.00
26575;DHT22;67165;50.256;10.978;2023-05-14T11:20:59;18.00;98.00
26575;DHT22;67165;50.256;10.978;2023-05-14T11:23:25;18.20;98.00
26575;DHT22;67165;50.256;10.978;2023-05-14T11:25:51;18.30;98.00
26575;DHT22;67165;50.256;10.978;2023-05-14T11:28:20;18.70;98.00
26575;DHT22;67165;50.256;10.978;2023-05-14T11:30:46;18.80;98.00
26575;DHT22;67165;50.256;10.978;2023-05-14T11:33:12;18.70;98.00
26575;DHT22;67165;50.256;10.978;2023-05-14T11:35:38;18.60;98.00
26575;DHT22;67165;50.256;10.978;2023-05-14T11:38:04;18.60;98.00
26575;DHT22;67165;50.256;10.978;2023-05-14T11:40:29;18.60;98.00
26575;DHT22;67165;50.256;10.978;2023-05-14T11:42:55;18.70;98.00
26575;DHT22;67165;50.256;10.978;2023-05-14T11:45:25;18.10;98.00
26575;DHT22;67165;50.256;10.978;2023-05-14T11:47:52;18.20;98.00
26575;DHT22;67165;50.256;10.978;2023-05-14T11:50:19;18.40;98.00
26575;DHT22;67165;50.256;10.978;2023-05-14T11:52:45;18.50;98.00
26575;DHT22;67165;50.256;10.978;2023-05-14T11:55:13;18.60;98.00
26575;DHT22;67165;50.256;10.978;2023-05-14T11:57:39;18.70;98.00
26575;DHT22;67165;50.256;10.978;2023-05-14T12:00:09;18.90;98.00
26575;DHT22;67165;50.256;10.978;2023-05-14T12:02:37;18.90;98.00
26575;DHT22;67165;50.256;10.978;2023-05-14T12:05:04;18.90;98.00
26575;DHT22;67165;50.256;10.978;2023-05-14T12:07:31;19.30;98.00
26575;DHT22;67165;50.256;10.978;2023-05-14T12:10:00;19.30;98.00
26575;DHT22;67165;50.256;10.978;2023-05-14T12:12:26;19.50;98.00
26575;DHT22;67165;50.256;10.978;2023-05-14T12:14:52;19.70;98.00
26575;DHT22;67165;50.256;10.978;2023-05-14T12:17:20;19.40;98.00
26575;DHT22;67165;50.256;10.978;2023-05-14T12:19:52;19.40;98.00
26575;DHT22;67165;50.256;10.978;2023-05-14T12:22:21;19.80;98.00
26575;DHT22;67165;50.256;10.978;2023-05-14T12:24:57;19.80;98.00
26575;DHT22;67165;50.256;10.978;2023-05-14T12:27:25;20.00;98.00
26575;DHT22;67165;50.256;10.978;2023-05-14T12:30:04;20.00;98.00
26575;DHT22;67165;50.256;10.978;2023-05-14T12:32:31;20.10;98.00
26575;DHT22;67165;50.256;10.978;2023-05-14T12:34:56;20.10;98.00
26575;DHT22;67165;50.256;10.978;2023-05-14T12:37:22;20.00;98.00
26575;DHT22;67165;50.256;10.978;2023-05-14T12:39:48;19.70;98.00
26575;DHT22;67165;50.256;10.978;2023-05-14T12:42:14;19.60;98.00
26575;DHT22;67165;50.256;10.978;2023-05-14T12:44:40;19.40;98.00
26575;DHT22;67165;50.256;10.978;2023-05-14T12:47:06;19.20;98.00
26575;DHT22;67165;50.256;10.978;2023-05-14T12:49:32;19.10;98.00
26575;DHT22;67165;50.256;10.978;2023-05-14T12:51:58;19.00;98.00
26575;DHT22;67165;50.256;10.978;2023-05-14T12:54:23;19.00;98.00
26575;DHT22;67165;50.256;10.978;2023-05-14T12:56:49;19.00;98.00
26575;DHT22;67165;50.256;10.978;2023-05-14T12:59:14;19.10;98.00
26575;DHT22;67165;50.256;10.978;2023-05-14T13:01:40;19.20;98.00
26575;DHT22;67165;50.256;10.978;2023-05-14T13:04:08;19.10;98.00
26575;DHT22;67165;50.256;10.978;2023-05-14T13:06:39;19.10;98.00
26575;DHT22;67165;50.256;10.978;2023-05-14T13:09:06;19.00;98.00
26575;DHT22;67165;50.256;10.978;2023-05-14T13:11:32;19.20;98.00
26575;DHT22;67165;50.256;10.978;2023-05-14T13:13:58;19.30;98.00
26575;DHT22;67165;50.256;10.978;2023-05-14T13:16:28;19.30;98.00
26575;DHT22;67165;50.256;10.978;2023-05-14T13:18:54;19.10;98.00
26575;DHT22;67165;50.256;10.978;2023-05-14T13:21:20;19.20;98.00
26575;DHT22;67165;50.256;10.978;2023-05-14T13:23:46;19.10;98.00
26575;DHT22;67165;50.256;10.978;2023-05-14T13:26:12;19.30;98.00
26575;DHT22;67165;50.256;10.978;2023-05-14T13:28:38;19.40;98.00
26575;DHT22;67165;50.256;10.978;2023-05-14T13:31:11;19.30;98.00
26575;DHT22;67165;50.256;10.978;2023-05-14T13:33:42;19.30;98.00
26575;DHT22;67165;50.256;10.978;2023-05-14T13:36:10;19.30;98.00
26575;DHT22;67165;50.256;10.978;2023-05-14T13:38:36;19.50;98.00
26575;DHT22;67165;50.256;10.978;2023-05-14T13:41:02;19.70;98.00
26575;DHT22;67165;50.256;10.978;2023-05-14T13:43:32;19.80;98.00
26575;DHT22;67165;50.256;10.978;2023-05-14T13:45:59;20.30;98.00
26575;DHT22;67165;50.256;10.978;2023-05-14T13:48:25;20.60;98.00
26575;DHT22;67165;50.256;10.978;2023-05-14T13:50:52;20.30;98.00
26575;DHT22;67165;50.256;10.978;2023-05-14T13:53:18;20.20;98.00
26575;DHT22;67165;50.256;10.978;2023-05-14T13:55:44;20.00;98.00
26575;DHT22;67165;50.256;10.978;2023-05-14T13:58:10;19.60;98.00
26575;DHT22;67165;50.256;10.978;2023-05-14T14:00:36;19.70;98.00
26575;DHT22;67165;50.256;10.978;2023-05-14T14:03:01;19.90;98.00
26575;DHT22;67165;50.256;10.978;2023-05-14T14:05:27;20.20;98.00
26575;DHT22;67165;50.256;10.978;2023-05-14T14:07:54;20.20;98.00
26575;DHT22;67165;50.256;10.978;2023-05-14T14:10:20;20.10;98.00
26575;DHT22;67165;50.256;10.978;2023-05-14T14:12:46;19.90;98.00
26575;DHT22;67165;50.256;10.978;2023-05-14T14:15:12;19.80;98.00
26575;DHT22;67165;50.256;10.978;2023-05-14T14:17:38;19.60;98.00
26575;DHT22;67165;50.256;10.978;2023-05-14T14:20:06;19.60;98.00
26575;DHT22;67165;50.256;10.978;2023-05-14T14:22:32;19.80;98.00
26575;DHT22;67165;50.256;10.978;2023-05-14T14:24:58;19.70;98.00
26575;DHT22;67165;50.256;10.978;2023-05-14T14:27:24;19.60;98.00
26575;DHT22;67165;50.256;10.978;2023-05-14T14:29:50;19.60;98.00
26575;DHT22;67165;50.256;10.978;2023-05-14T14:32:16;19.60;98.00
26575;DHT22;67165;50.256;10.978;2023-05-14T14:34:41;19.50;98.00
26575;DHT22;67165;50.256;10.978;2023-05-14T14:37:07;19.50;98.00
26575;DHT22;67165;50.256;10.978;2023-05-14T14:39:33;19.60;98.00
26575;DHT22;67165;50.256;10.978;2023-05-14T14:41:58;19.60;98.00
26575;DHT22;67165;50.256;10.978;2023-05-14T14:44:24;19.80;98.00
26575;DHT22;67165;50.256;10.978;2023-05-14T14:46:50;19.60;98.00
26575;DHT22;67165;50.256;10.978;2023-05-14T14:49:15;19.60;98.00
26575;DHT22;67165;50.256;10.978;2023-05-14T14:51:41;19.50;98.00
26575;DHT22;67165;50.256;10.978;2023-05-14T14:54:07;19.80;98.00
26575;DHT22;67165;50.256;10.978;2023-05-14T14:56:32;19.90;98.00
26575;DHT22;67165;50.256;10.978;2023-05-14T14:58:58;19.90;98.00
26575;DHT22;67165;50.256;10.978;2023-05-14T15:01:24;19.70;98.00
26575;DHT22;67165;50.256;10.978;2023-05-14T15:03:50;19.70;98.00
26575;DHT22;67165;50.256;10.978;2023-05-14T15:06:15;19.60;98.00
26575;DHT22;67165;50.256;10.978;2023-05-14T15:08:41;19.50;98.00
26575;DHT22;67165;50.256;10.978;2023-05-14T15:11:07;19.30;98.00
26575;DHT22;67165;50.256;10.978;2023-05-14T15:13:33;19.20;98.00
26575;DHT22;67165;50.256;10.978;2023-05-14T15:15:59;19.10;98.00
26575;DHT22;67165;50.256;10.978;2023-05-14T15:18:24;19.10;98.00
26575;DHT22;67165;50.256;10.978;2023-05-14T15:20:50;19.00;98.00